sensor_id;sensor_type;location;lat;lon;timestamp;P1;durP1;ratioP1;P2;durP2;ratioP2
56877;SDS011;42765;44.764;19.676;2022-08-03T00:01:51;5.85;;;3.90;;
56877;SDS011;42765;44.764;19.676;2022-08-03T00:04:17;5.13;;;3.50;;
56877;SDS011;42765;44.764;19.676;2022-08-03T00:06:43;6.38;;;3.80;;
56877;SDS011;42765;44.764;19.676;2022-08-03T00:09:09;7.00;;;3.13;;
56877;SDS011;42765;44.764;19.676;2022-08-03T00:11:35;3.92;;;2.97;;
56877;SDS011;42765;44.764;19.676;2022-08-03T00:14:02;10.13;;;3.45;;
56877;SDS011;42765;44.764;19.676;2022-08-03T00:16:29;4.97;;;3.70;;
56877;SDS011;42765;44.764;19.676;2022-08-03T00:18:55;6.07;;;3.40;;
56877;SDS011;42765;44.764;19.676;2022-08-03T00:21:21;5.03;;;3.75;;
56877;SDS011;42765;44.764;19.676;2022-08-03T00:23:47;3.45;;;3.15;;
56877;SDS011;42765;44.764;19.676;2022-08-03T00:26:13;4.90;;;3.28;;
56877;SDS011;42765;44.764;19.676;2022-08-03T00:28:39;3.65;;;3.35;;
56877;SDS011;42765;44.764;19.676;2022-08-03T00:31:05;6.88;;;3.53;;
56877;SDS011;42765;44.764;19.676;2022-08-03T00:33:31;4.68;;;3.10;;
56877;SDS011;42765;44.764;19.676;2022-08-03T00:35:57;5.82;;;3.30;;
56877;SDS011;42765;44.764;19.676;2022-08-03T00:38:23;8.20;;;3.47;;
56877;SDS011;42765;44.764;19.676;2022-08-03T00:40:49;3.65;;;3.35;;
56877;SDS011;42765;44.764;19.676;2022-08-03T00:43:15;4.82;;;3.65;;
56877;SDS011;42765;44.764;19.676;2022-08-03T00:45:41;6.05;;;3.72;;
56877;SDS011;42765;44.764;19.676;2022-08-03T00:48:08;8.70;;;3.60;;
56877;SDS011;42765;44.764;19.676;2022-08-03T00:50:39;4.75;;;3.40;;
56877;SDS011;42765;44.764;19.676;2022-08-03T00:53:07;6.10;;;3.77;;
56877;SDS011;42765;44.764;19.676;2022-08-03T00:55:36;5.20;;;2.85;;
56877;SDS011;42765;44.764;19.676;2022-08-03T00:58:02;7.55;;;3.63;;
56877;SDS011;42765;44.764;19.676;2022-08-03T01:00:31;6.75;;;3.90;;
56877;SDS011;42765;44.764;19.676;2022-08-03T01:02:57;3.65;;;3.35;;
56877;SDS011;42765;44.764;19.676;2022-08-03T01:05:23;6.85;;;4.10;;
56877;SDS011;42765;44.764;19.676;2022-08-03T01:08:02;4.72;;;3.80;;
56877;SDS011;42765;44.764;19.676;2022-08-03T01:13:19;7.18;;;3.85;;
56877;SDS011;42765;44.764;19.676;2022-08-03T01:15:53;6.90;;;3.80;;
56877;SDS011;42765;44.764;19.676;2022-08-03T01:20:57;7.05;;;3.75;;
56877;SDS011;42765;44.764;19.676;2022-08-03T01:23:27;4.78;;;4.13;;
56877;SDS011;42765;44.764;19.676;2022-08-03T01:32:01;11.25;;;4.78;;
56877;SDS011;42765;44.764;19.676;2022-08-03T01:34:33;8.45;;;4.82;;
56877;SDS011;42765;44.764;19.676;2022-08-03T01:37:04;8.25;;;5.90;;
56877;SDS011;42765;44.764;19.676;2022-08-03T01:39:31;8.38;;;5.18;;
56877;SDS011;42765;44.764;19.676;2022-08-03T01:42:00;8.32;;;5.22;;
56877;SDS011;42765;44.764;19.676;2022-08-03T01:44:31;7.13;;;6.38;;
56877;SDS011;42765;44.764;19.676;2022-08-03T01:47:02;9.02;;;5.82;;
56877;SDS011;42765;44.764;19.676;2022-08-03T01:49:31;10.23;;;5.30;;
56877;SDS011;42765;44.764;19.676;2022-08-03T01:52:01;11.68;;;5.00;;
56877;SDS011;42765;44.764;19.676;2022-08-03T01:54:28;7.40;;;5.05;;
56877;SDS011;42765;44.764;19.676;2022-08-03T01:56:55;12.75;;;4.60;;
56877;SDS011;42765;44.764;19.676;2022-08-03T01:59:23;18.13;;;5.60;;
56877;SDS011;42765;44.764;19.676;2022-08-03T02:01:50;9.45;;;4.63;;
56877;SDS011;42765;44.764;19.676;2022-08-03T02:04:17;7.00;;;5.47;;
56877;SDS011;42765;44.764;19.676;2022-08-03T02:06:44;9.15;;;5.22;;
56877;SDS011;42765;44.764;19.676;2022-08-03T02:09:11;8.00;;;4.85;;
56877;SDS011;42765;44.764;19.676;2022-08-03T02:11:38;5.53;;;4.60;;
56877;SDS011;42765;44.764;19.676;2022-08-03T02:14:05;7.57;;;4.68;;
56877;SDS011;42765;44.764;19.676;2022-08-03T02:16:32;10.05;;;4.50;;
56877;SDS011;42765;44.764;19.676;2022-08-03T02:19:00;7.63;;;4.75;;
56877;SDS011;42765;44.764;19.676;2022-08-03T02:21:28;6.32;;;4.82;;
56877;SDS011;42765;44.764;19.676;2022-08-03T02:23:57;5.90;;;4.20;;
56877;SDS011;42765;44.764;19.676;2022-08-03T02:26:23;8.07;;;4.80;;
56877;SDS011;42765;44.764;19.676;2022-08-03T02:28:53;8.70;;;4.68;;
56877;SDS011;42765;44.764;19.676;2022-08-03T02:31:23;5.30;;;4.80;;
56877;SDS011;42765;44.764;19.676;2022-08-03T02:33:53;10.25;;;5.35;;
56877;SDS011;42765;44.764;19.676;2022-08-03T02:36:24;8.30;;;5.03;;
56877;SDS011;42765;44.764;19.676;2022-08-03T02:38:52;6.55;;;4.70;;
56877;SDS011;42765;44.764;19.676;2022-08-03T02:41:29;7.63;;;4.95;;
56877;SDS011;42765;44.764;19.676;2022-08-03T02:43:59;10.13;;;5.43;;
56877;SDS011;42765;44.764;19.676;2022-08-03T02:46:29;10.00;;;5.95;;
56877;SDS011;42765;44.764;19.676;2022-08-03T02:48:58;9.48;;;5.75;;
56877;SDS011;42765;44.764;19.676;2022-08-03T02:51:27;13.30;;;6.78;;
56877;SDS011;42765;44.764;19.676;2022-08-03T02:53:56;10.88;;;5.72;;
56877;SDS011;42765;44.764;19.676;2022-08-03T02:56:25;8.23;;;5.15;;
56877;SDS011;42765;44.764;19.676;2022-08-03T02:58:52;5.72;;;4.55;;
56877;SDS011;42765;44.764;19.676;2022-08-03T03:01:19;12.50;;;5.70;;
56877;SDS011;42765;44.764;19.676;2022-08-03T03:03:47;9.85;;;5.57;;
56877;SDS011;42765;44.764;19.676;2022-08-03T03:06:15;8.60;;;4.78;;
56877;SDS011;42765;44.764;19.676;2022-08-03T03:08:42;11.82;;;5.28;;
56877;SDS011;42765;44.764;19.676;2022-08-03T03:11:08;10.40;;;6.00;;
56877;SDS011;42765;44.764;19.676;2022-08-03T03:13:35;8.75;;;5.30;;
56877;SDS011;42765;44.764;19.676;2022-08-03T03:16:03;6.50;;;5.38;;
56877;SDS011;42765;44.764;19.676;2022-08-03T03:18:30;10.93;;;5.40;;
56877;SDS011;42765;44.764;19.676;2022-08-03T03:20:59;9.32;;;6.30;;
56877;SDS011;42765;44.764;19.676;2022-08-03T03:23:26;11.27;;;6.10;;
56877;SDS011;42765;44.764;19.676;2022-08-03T03:25:54;11.05;;;5.72;;
56877;SDS011;42765;44.764;19.676;2022-08-03T03:28:22;13.82;;;5.78;;
56877;SDS011;42765;44.764;19.676;2022-08-03T03:30:49;10.43;;;7.07;;
56877;SDS011;42765;44.764;19.676;2022-08-03T03:33:15;6.20;;;5.60;;
56877;SDS011;42765;44.764;19.676;2022-08-03T03:35:42;11.23;;;6.25;;
56877;SDS011;42765;44.764;19.676;2022-08-03T03:38:10;9.13;;;5.95;;
56877;SDS011;42765;44.764;19.676;2022-08-03T03:40:36;15.85;;;6.22;;
56877;SDS011;42765;44.764;19.676;2022-08-03T03:43:06;22.27;;;6.78;;
56877;SDS011;42765;44.764;19.676;2022-08-03T03:45:34;9.23;;;6.23;;
56877;SDS011;42765;44.764;19.676;2022-08-03T03:48:01;15.45;;;5.78;;
56877;SDS011;42765;44.764;19.676;2022-08-03T03:50:29;6.68;;;4.90;;
56877;SDS011;42765;44.764;19.676;2022-08-03T03:52:57;7.88;;;5.03;;
56877;SDS011;42765;44.764;19.676;2022-08-03T03:55:23;7.50;;;4.60;;
56877;SDS011;42765;44.764;19.676;2022-08-03T03:57:49;9.25;;;4.22;;
56877;SDS011;42765;44.764;19.676;2022-08-03T04:00:15;6.78;;;4.60;;
56877;SDS011;42765;44.764;19.676;2022-08-03T04:02:43;5.85;;;4.80;;
56877;SDS011;42765;44.764;19.676;2022-08-03T04:05:10;9.57;;;4.10;;
56877;SDS011;42765;44.764;19.676;2022-08-03T04:07:57;11.85;;;5.00;;
56877;SDS011;42765;44.764;19.676;2022-08-03T04:10:45;5.85;;;3.85;;
56877;SDS011;42765;44.764;19.676;2022-08-03T04:13:23;7.20;;;5.55;;
56877;SDS011;42765;44.764;19.676;2022-08-03T04:15:53;7.95;;;4.43;;
56877;SDS011;42765;44.764;19.676;2022-08-03T04:18:21;4.13;;;3.70;;
56877;SDS011;42765;44.764;19.676;2022-08-03T04:20:49;6.05;;;4.13;;
56877;SDS011;42765;44.764;19.676;2022-08-03T04:23:17;9.38;;;4.70;;
56877;SDS011;42765;44.764;19.676;2022-08-03T04:25:46;9.35;;;5.07;;
56877;SDS011;42765;44.764;19.676;2022-08-03T04:28:14;5.70;;;4.88;;
56877;SDS011;42765;44.764;19.676;2022-08-03T04:30:41;6.75;;;4.80;;
56877;SDS011;42765;44.764;19.676;2022-08-03T04:33:12;6.47;;;4.53;;
56877;SDS011;42765;44.764;19.676;2022-08-03T04:35:40;6.93;;;4.83;;
56877;SDS011;42765;44.764;19.676;2022-08-03T04:38:08;6.00;;;4.40;;
56877;SDS011;42765;44.764;19.676;2022-08-03T04:40:39;15.77;;;4.80;;
56877;SDS011;42765;44.764;19.676;2022-08-03T04:43:07;9.27;;;5.10;;
56877;SDS011;42765;44.764;19.676;2022-08-03T04:45:35;9.03;;;5.47;;
56877;SDS011;42765;44.764;19.676;2022-08-03T04:48:01;7.55;;;5.38;;
56877;SDS011;42765;44.764;19.676;2022-08-03T04:50:27;9.38;;;5.20;;
56877;SDS011;42765;44.764;19.676;2022-08-03T04:52:54;6.60;;;4.95;;
56877;SDS011;42765;44.764;19.676;2022-08-03T04:55:26;6.47;;;4.90;;
56877;SDS011;42765;44.764;19.676;2022-08-03T04:57:53;9.68;;;4.68;;
56877;SDS011;42765;44.764;19.676;2022-08-03T05:00:19;11.20;;;4.55;;
56877;SDS011;42765;44.764;19.676;2022-08-03T05:02:45;7.43;;;4.85;;
56877;SDS011;42765;44.764;19.676;2022-08-03T05:05:11;5.67;;;4.20;;
56877;SDS011;42765;44.764;19.676;2022-08-03T05:07:37;7.00;;;4.17;;
56877;SDS011;42765;44.764;19.676;2022-08-03T05:10:07;4.68;;;4.20;;
56877;SDS011;42765;44.764;19.676;2022-08-03T05:15:00;7.07;;;4.22;;
56877;SDS011;42765;44.764;19.676;2022-08-03T05:17:27;8.02;;;4.22;;
56877;SDS011;42765;44.764;19.676;2022-08-03T05:19:53;7.70;;;3.70;;
56877;SDS011;42765;44.764;19.676;2022-08-03T05:22:20;4.30;;;3.53;;
56877;SDS011;42765;44.764;19.676;2022-08-03T05:24:46;7.55;;;4.28;;
56877;SDS011;42765;44.764;19.676;2022-08-03T05:27:12;6.30;;;4.65;;
56877;SDS011;42765;44.764;19.676;2022-08-03T05:29:43;8.20;;;4.20;;
56877;SDS011;42765;44.764;19.676;2022-08-03T05:32:09;14.10;;;4.65;;
56877;SDS011;42765;44.764;19.676;2022-08-03T05:34:35;5.57;;;4.13;;
56877;SDS011;42765;44.764;19.676;2022-08-03T05:37:01;5.40;;;4.70;;
56877;SDS011;42765;44.764;19.676;2022-08-03T05:39:27;4.65;;;3.65;;
56877;SDS011;42765;44.764;19.676;2022-08-03T05:41:53;8.67;;;4.17;;
56877;SDS011;42765;44.764;19.676;2022-08-03T05:44:19;7.20;;;4.55;;
56877;SDS011;42765;44.764;19.676;2022-08-03T05:46:45;7.97;;;5.30;;
56877;SDS011;42765;44.764;19.676;2022-08-03T05:49:10;6.80;;;4.05;;
56877;SDS011;42765;44.764;19.676;2022-08-03T05:51:36;12.38;;;6.00;;
56877;SDS011;42765;44.764;19.676;2022-08-03T05:54:02;9.70;;;5.65;;
56877;SDS011;42765;44.764;19.676;2022-08-03T05:56:28;12.57;;;5.55;;
56877;SDS011;42765;44.764;19.676;2022-08-03T05:58:54;6.15;;;5.20;;
56877;SDS011;42765;44.764;19.676;2022-08-03T06:01:20;11.73;;;6.40;;
56877;SDS011;42765;44.764;19.676;2022-08-03T06:03:46;6.25;;;4.10;;
56877;SDS011;42765;44.764;19.676;2022-08-03T06:06:13;5.47;;;3.53;;
56877;SDS011;42765;44.764;19.676;2022-08-03T06:08:40;8.30;;;3.28;;
56877;SDS011;42765;44.764;19.676;2022-08-03T06:11:06;4.60;;;3.80;;
56877;SDS011;42765;44.764;19.676;2022-08-03T06:13:33;8.68;;;4.82;;
56877;SDS011;42765;44.764;19.676;2022-08-03T06:15:58;7.60;;;4.60;;
56877;SDS011;42765;44.764;19.676;2022-08-03T06:18:24;9.55;;;4.55;;
56877;SDS011;42765;44.764;19.676;2022-08-03T06:20:50;5.55;;;3.78;;
56877;SDS011;42765;44.764;19.676;2022-08-03T06:23:17;9.53;;;4.20;;
56877;SDS011;42765;44.764;19.676;2022-08-03T06:25:42;10.90;;;4.50;;
56877;SDS011;42765;44.764;19.676;2022-08-03T06:28:08;5.40;;;3.47;;
56877;SDS011;42765;44.764;19.676;2022-08-03T06:30:35;6.32;;;3.42;;
56877;SDS011;42765;44.764;19.676;2022-08-03T06:33:01;7.10;;;3.83;;
56877;SDS011;42765;44.764;19.676;2022-08-03T06:35:26;7.75;;;3.35;;
56877;SDS011;42765;44.764;19.676;2022-08-03T06:37:53;9.68;;;5.78;;
56877;SDS011;42765;44.764;19.676;2022-08-03T06:40:20;8.75;;;4.68;;
56877;SDS011;42765;44.764;19.676;2022-08-03T06:42:53;13.68;;;6.43;;
56877;SDS011;42765;44.764;19.676;2022-08-03T06:45:19;14.43;;;4.95;;
56877;SDS011;42765;44.764;19.676;2022-08-03T06:47:45;5.75;;;3.80;;
56877;SDS011;42765;44.764;19.676;2022-08-03T06:50:11;10.68;;;3.58;;
56877;SDS011;42765;44.764;19.676;2022-08-03T06:52:37;13.85;;;3.55;;
56877;SDS011;42765;44.764;19.676;2022-08-03T06:55:04;9.65;;;3.75;;
56877;SDS011;42765;44.764;19.676;2022-08-03T06:57:30;7.18;;;3.40;;
56877;SDS011;42765;44.764;19.676;2022-08-03T06:59:57;8.45;;;3.53;;
56877;SDS011;42765;44.764;19.676;2022-08-03T07:02:26;9.00;;;3.47;;
56877;SDS011;42765;44.764;19.676;2022-08-03T07:04:53;8.40;;;2.70;;
56877;SDS011;42765;44.764;19.676;2022-08-03T07:07:19;3.58;;;3.00;;
56877;SDS011;42765;44.764;19.676;2022-08-03T07:09:45;7.60;;;2.78;;
56877;SDS011;42765;44.764;19.676;2022-08-03T07:12:12;9.35;;;2.63;;
56877;SDS011;42765;44.764;19.676;2022-08-03T07:14:38;6.30;;;2.83;;
56877;SDS011;42765;44.764;19.676;2022-08-03T07:17:03;7.40;;;3.80;;
56877;SDS011;42765;44.764;19.676;2022-08-03T07:19:29;5.82;;;2.47;;
56877;SDS011;42765;44.764;19.676;2022-08-03T07:21:55;5.63;;;2.90;;
56877;SDS011;42765;44.764;19.676;2022-08-03T07:24:21;7.28;;;2.63;;
56877;SDS011;42765;44.764;19.676;2022-08-03T07:26:47;4.40;;;2.83;;
56877;SDS011;42765;44.764;19.676;2022-08-03T07:29:13;6.90;;;3.45;;
56877;SDS011;42765;44.764;19.676;2022-08-03T07:31:38;6.18;;;3.17;;
56877;SDS011;42765;44.764;19.676;2022-08-03T07:34:04;7.75;;;3.45;;
56877;SDS011;42765;44.764;19.676;2022-08-03T07:36:30;8.43;;;2.40;;
56877;SDS011;42765;44.764;19.676;2022-08-03T07:38:56;4.80;;;2.53;;
56877;SDS011;42765;44.764;19.676;2022-08-03T07:41:22;8.63;;;2.78;;
56877;SDS011;42765;44.764;19.676;2022-08-03T07:43:48;9.30;;;3.38;;
56877;SDS011;42765;44.764;19.676;2022-08-03T07:46:14;4.28;;;2.92;;
56877;SDS011;42765;44.764;19.676;2022-08-03T07:48:40;12.98;;;3.15;;
56877;SDS011;42765;44.764;19.676;2022-08-03T07:51:06;14.82;;;3.45;;
56877;SDS011;42765;44.764;19.676;2022-08-03T07:53:32;4.93;;;3.05;;
56877;SDS011;42765;44.764;19.676;2022-08-03T07:55:57;6.20;;;2.70;;
56877;SDS011;42765;44.764;19.676;2022-08-03T07:58:23;5.88;;;3.08;;
56877;SDS011;42765;44.764;19.676;2022-08-03T08:00:49;6.80;;;2.88;;
56877;SDS011;42765;44.764;19.676;2022-08-03T08:03:17;4.38;;;3.47;;
56877;SDS011;42765;44.764;19.676;2022-08-03T08:05:42;6.25;;;3.00;;
56877;SDS011;42765;44.764;19.676;2022-08-03T08:08:09;2.92;;;2.63;;
56877;SDS011;42765;44.764;19.676;2022-08-03T08:10:34;7.82;;;3.67;;
56877;SDS011;42765;44.764;19.676;2022-08-03T08:13:01;7.40;;;2.50;;
56877;SDS011;42765;44.764;19.676;2022-08-03T08:15:28;5.85;;;2.47;;
56877;SDS011;42765;44.764;19.676;2022-08-03T08:17:55;7.97;;;2.92;;
56877;SDS011;42765;44.764;19.676;2022-08-03T08:20:23;8.27;;;2.40;;
56877;SDS011;42765;44.764;19.676;2022-08-03T08:22:51;6.40;;;2.40;;
56877;SDS011;42765;44.764;19.676;2022-08-03T08:25:19;2.55;;;2.35;;
56877;SDS011;42765;44.764;19.676;2022-08-03T08:27:48;4.47;;;2.20;;
56877;SDS011;42765;44.764;19.676;2022-08-03T08:30:16;6.93;;;1.92;;
56877;SDS011;42765;44.764;19.676;2022-08-03T08:32:43;9.20;;;2.60;;
56877;SDS011;42765;44.764;19.676;2022-08-03T08:35:10;6.65;;;2.20;;
56877;SDS011;42765;44.764;19.676;2022-08-03T08:37:36;4.20;;;2.28;;
56877;SDS011;42765;44.764;19.676;2022-08-03T08:40:04;2.58;;;2.20;;
56877;SDS011;42765;44.764;19.676;2022-08-03T08:42:30;11.93;;;2.92;;
56877;SDS011;42765;44.764;19.676;2022-08-03T08:44:57;3.55;;;1.85;;
56877;SDS011;42765;44.764;19.676;2022-08-03T08:47:24;3.42;;;2.03;;
56877;SDS011;42765;44.764;19.676;2022-08-03T08:49:54;6.93;;;2.40;;
56877;SDS011;42765;44.764;19.676;2022-08-03T08:52:23;3.95;;;1.70;;
56877;SDS011;42765;44.764;19.676;2022-08-03T08:54:53;5.80;;;2.63;;
56877;SDS011;42765;44.764;19.676;2022-08-03T08:57:24;3.65;;;2.20;;
56877;SDS011;42765;44.764;19.676;2022-08-03T09:02:24;4.88;;;2.00;;
56877;SDS011;42765;44.764;19.676;2022-08-03T09:04:53;5.22;;;2.38;;
56877;SDS011;42765;44.764;19.676;2022-08-03T09:07:20;4.30;;;1.98;;
56877;SDS011;42765;44.764;19.676;2022-08-03T09:09:46;2.88;;;2.20;;
56877;SDS011;42765;44.764;19.676;2022-08-03T09:12:12;3.95;;;2.70;;
56877;SDS011;42765;44.764;19.676;2022-08-03T09:14:38;2.70;;;2.40;;
56877;SDS011;42765;44.764;19.676;2022-08-03T09:17:04;6.88;;;2.30;;
56877;SDS011;42765;44.764;19.676;2022-08-03T09:19:31;6.22;;;2.88;;
56877;SDS011;42765;44.764;19.676;2022-08-03T09:24:38;5.28;;;2.17;;
56877;SDS011;42765;44.764;19.676;2022-08-03T09:27:21;1.92;;;1.83;;
56877;SDS011;42765;44.764;19.676;2022-08-03T09:29:48;2.58;;;2.38;;
56877;SDS011;42765;44.764;19.676;2022-08-03T09:32:21;3.80;;;2.28;;
56877;SDS011;42765;44.764;19.676;2022-08-03T09:34:48;7.15;;;2.95;;
56877;SDS011;42765;44.764;19.676;2022-08-03T09:37:16;6.55;;;1.90;;
56877;SDS011;42765;44.764;19.676;2022-08-03T09:39:43;4.63;;;1.90;;
56877;SDS011;42765;44.764;19.676;2022-08-03T09:42:16;2.38;;;2.17;;
56877;SDS011;42765;44.764;19.676;2022-08-03T09:44:47;3.45;;;2.10;;
56877;SDS011;42765;44.764;19.676;2022-08-03T09:47:15;4.05;;;2.20;;
56877;SDS011;42765;44.764;19.676;2022-08-03T09:49:56;1.90;;;1.80;;
56877;SDS011;42765;44.764;19.676;2022-08-03T09:52:29;3.08;;;1.90;;
56877;SDS011;42765;44.764;19.676;2022-08-03T09:54:57;5.22;;;2.28;;
56877;SDS011;42765;44.764;19.676;2022-08-03T09:57:25;4.13;;;2.30;;
56877;SDS011;42765;44.764;19.676;2022-08-03T09:59:51;2.42;;;2.03;;
56877;SDS011;42765;44.764;19.676;2022-08-03T10:02:23;4.70;;;1.95;;
56877;SDS011;42765;44.764;19.676;2022-08-03T10:04:50;2.40;;;1.92;;
56877;SDS011;42765;44.764;19.676;2022-08-03T10:07:20;3.35;;;1.80;;
56877;SDS011;42765;44.764;19.676;2022-08-03T10:27:22;5.05;;;1.90;;
56877;SDS011;42765;44.764;19.676;2022-08-03T10:29:50;7.20;;;1.90;;
56877;SDS011;42765;44.764;19.676;2022-08-03T10:32:21;13.95;;;2.17;;
56877;SDS011;42765;44.764;19.676;2022-08-03T10:35:04;6.00;;;2.33;;
56877;SDS011;42765;44.764;19.676;2022-08-03T10:37:32;5.35;;;2.40;;
56877;SDS011;42765;44.764;19.676;2022-08-03T10:40:01;4.50;;;2.05;;
56877;SDS011;42765;44.764;19.676;2022-08-03T10:42:28;3.88;;;2.25;;
56877;SDS011;42765;44.764;19.676;2022-08-03T10:45:03;2.67;;;1.45;;
56877;SDS011;42765;44.764;19.676;2022-08-03T10:47:30;2.53;;;1.85;;
56877;SDS011;42765;44.764;19.676;2022-08-03T10:49:58;4.47;;;2.30;;
56877;SDS011;42765;44.764;19.676;2022-08-03T10:52:25;2.80;;;1.80;;
56877;SDS011;42765;44.764;19.676;2022-08-03T10:54:51;2.30;;;2.10;;
56877;SDS011;42765;44.764;19.676;2022-08-03T10:57:49;4.57;;;2.10;;
56877;SDS011;42765;44.764;19.676;2022-08-03T11:00:20;2.40;;;2.00;;
56877;SDS011;42765;44.764;19.676;2022-08-03T11:05:34;2.67;;;1.75;;
56877;SDS011;42765;44.764;19.676;2022-08-03T11:10:43;3.78;;;1.80;;
56877;SDS011;42765;44.764;19.676;2022-08-03T11:13:10;3.15;;;1.58;;
56877;SDS011;42765;44.764;19.676;2022-08-03T11:15:39;6.88;;;2.67;;
56877;SDS011;42765;44.764;19.676;2022-08-03T11:18:11;2.05;;;1.85;;
56877;SDS011;42765;44.764;19.676;2022-08-03T11:20:54;6.30;;;1.83;;
56877;SDS011;42765;44.764;19.676;2022-08-03T11:26:10;2.00;;;1.80;;
56877;SDS011;42765;44.764;19.676;2022-08-03T11:28:38;2.40;;;1.80;;
56877;SDS011;42765;44.764;19.676;2022-08-03T11:34:02;6.20;;;2.03;;
56877;SDS011;42765;44.764;19.676;2022-08-03T11:36:29;2.97;;;1.83;;
56877;SDS011;42765;44.764;19.676;2022-08-03T11:41:41;2.90;;;1.75;;
56877;SDS011;42765;44.764;19.676;2022-08-03T11:44:07;4.45;;;1.70;;
56877;SDS011;42765;44.764;19.676;2022-08-03T11:46:45;2.03;;;1.77;;
56877;SDS011;42765;44.764;19.676;2022-08-03T11:49:11;2.95;;;1.85;;
56877;SDS011;42765;44.764;19.676;2022-08-03T11:51:37;4.05;;;2.20;;
56877;SDS011;42765;44.764;19.676;2022-08-03T11:54:05;3.47;;;2.20;;
56877;SDS011;42765;44.764;19.676;2022-08-03T11:56:44;2.00;;;1.42;;
56877;SDS011;42765;44.764;19.676;2022-08-03T11:59:11;3.15;;;1.73;;
56877;SDS011;42765;44.764;19.676;2022-08-03T12:01:37;3.58;;;1.75;;
56877;SDS011;42765;44.764;19.676;2022-08-03T12:04:05;4.85;;;2.15;;
56877;SDS011;42765;44.764;19.676;2022-08-03T12:06:31;4.72;;;2.10;;
56877;SDS011;42765;44.764;19.676;2022-08-03T12:09:17;6.07;;;2.00;;
56877;SDS011;42765;44.764;19.676;2022-08-03T12:11:46;4.40;;;1.90;;
56877;SDS011;42765;44.764;19.676;2022-08-03T12:14:16;3.30;;;1.77;;
56877;SDS011;42765;44.764;19.676;2022-08-03T12:16:46;4.97;;;1.70;;
56877;SDS011;42765;44.764;19.676;2022-08-03T12:19:12;5.07;;;2.10;;
56877;SDS011;42765;44.764;19.676;2022-08-03T12:21:48;3.97;;;1.85;;
56877;SDS011;42765;44.764;19.676;2022-08-03T12:24:14;5.43;;;1.88;;
56877;SDS011;42765;44.764;19.676;2022-08-03T12:26:49;5.80;;;1.88;;
56877;SDS011;42765;44.764;19.676;2022-08-03T12:29:16;5.43;;;2.50;;
56877;SDS011;42765;44.764;19.676;2022-08-03T12:31:42;4.78;;;2.13;;
56877;SDS011;42765;44.764;19.676;2022-08-03T12:34:09;2.90;;;2.63;;
56877;SDS011;42765;44.764;19.676;2022-08-03T12:36:35;2.90;;;1.95;;
56877;SDS011;42765;44.764;19.676;2022-08-03T12:39:04;5.70;;;1.85;;
56877;SDS011;42765;44.764;19.676;2022-08-03T12:41:35;2.75;;;1.88;;
56877;SDS011;42765;44.764;19.676;2022-08-03T12:44:02;2.75;;;1.88;;
56877;SDS011;42765;44.764;19.676;2022-08-03T12:48:59;4.35;;;1.63;;
56877;SDS011;42765;44.764;19.676;2022-08-03T12:51:27;2.05;;;1.83;;
56877;SDS011;42765;44.764;19.676;2022-08-03T12:53:54;6.70;;;1.90;;
56877;SDS011;42765;44.764;19.676;2022-08-03T12:56:20;5.72;;;2.60;;
56877;SDS011;42765;44.764;19.676;2022-08-03T12:58:47;6.80;;;2.22;;
56877;SDS011;42765;44.764;19.676;2022-08-03T13:01:14;8.25;;;2.50;;
56877;SDS011;42765;44.764;19.676;2022-08-03T13:03:42;3.42;;;2.53;;
56877;SDS011;42765;44.764;19.676;2022-08-03T13:06:10;5.88;;;2.50;;
56877;SDS011;42765;44.764;19.676;2022-08-03T13:08:40;12.00;;;3.13;;
56877;SDS011;42765;44.764;19.676;2022-08-03T13:11:20;5.95;;;2.95;;
56877;SDS011;42765;44.764;19.676;2022-08-03T13:13:50;5.07;;;2.60;;
56877;SDS011;42765;44.764;19.676;2022-08-03T13:16:17;4.55;;;2.75;;
56877;SDS011;42765;44.764;19.676;2022-08-03T13:18:46;4.68;;;2.60;;
56877;SDS011;42765;44.764;19.676;2022-08-03T13:21:13;6.88;;;2.30;;
56877;SDS011;42765;44.764;19.676;2022-08-03T13:23:40;7.07;;;2.50;;
56877;SDS011;42765;44.764;19.676;2022-08-03T13:26:07;2.90;;;2.45;;
56877;SDS011;42765;44.764;19.676;2022-08-03T13:28:33;3.08;;;2.45;;
56877;SDS011;42765;44.764;19.676;2022-08-03T13:30:59;6.75;;;2.72;;
56877;SDS011;42765;44.764;19.676;2022-08-03T13:33:25;5.40;;;2.20;;
56877;SDS011;42765;44.764;19.676;2022-08-03T13:35:52;14.73;;;2.72;;
56877;SDS011;42765;44.764;19.676;2022-08-03T13:38:18;4.40;;;2.45;;
56877;SDS011;42765;44.764;19.676;2022-08-03T13:40:44;4.85;;;2.15;;
56877;SDS011;42765;44.764;19.676;2022-08-03T13:43:10;4.38;;;2.05;;
56877;SDS011;42765;44.764;19.676;2022-08-03T13:45:36;8.52;;;2.28;;
56877;SDS011;42765;44.764;19.676;2022-08-03T13:48:02;4.25;;;2.25;;
56877;SDS011;42765;44.764;19.676;2022-08-03T13:50:29;9.98;;;2.22;;
56877;SDS011;42765;44.764;19.676;2022-08-03T13:52:58;12.38;;;2.33;;
56877;SDS011;42765;44.764;19.676;2022-08-03T13:55:23;7.53;;;2.22;;
56877;SDS011;42765;44.764;19.676;2022-08-03T13:57:49;2.70;;;1.80;;
56877;SDS011;42765;44.764;19.676;2022-08-03T14:00:16;7.82;;;2.35;;
56877;SDS011;42765;44.764;19.676;2022-08-03T14:02:42;4.00;;;2.17;;
56877;SDS011;42765;44.764;19.676;2022-08-03T14:05:08;3.30;;;2.10;;
56877;SDS011;42765;44.764;19.676;2022-08-03T14:07:35;3.83;;;2.08;;
56877;SDS011;42765;44.764;19.676;2022-08-03T14:10:01;3.05;;;2.63;;
56877;SDS011;42765;44.764;19.676;2022-08-03T14:12:27;1.98;;;1.85;;
56877;SDS011;42765;44.764;19.676;2022-08-03T14:14:53;3.88;;;1.85;;
56877;SDS011;42765;44.764;19.676;2022-08-03T14:17:19;5.25;;;2.15;;
56877;SDS011;42765;44.764;19.676;2022-08-03T14:19:45;2.92;;;1.95;;
56877;SDS011;42765;44.764;19.676;2022-08-03T14:22:11;3.90;;;1.58;;
56877;SDS011;42765;44.764;19.676;2022-08-03T14:24:38;2.20;;;1.63;;
56877;SDS011;42765;44.764;19.676;2022-08-03T14:27:04;3.72;;;1.63;;
56877;SDS011;42765;44.764;19.676;2022-08-03T14:29:30;6.25;;;2.00;;
56877;SDS011;42765;44.764;19.676;2022-08-03T14:31:56;4.10;;;1.77;;
56877;SDS011;42765;44.764;19.676;2022-08-03T14:34:22;6.95;;;1.85;;
56877;SDS011;42765;44.764;19.676;2022-08-03T14:36:48;5.78;;;1.80;;
56877;SDS011;42765;44.764;19.676;2022-08-03T14:39:14;2.00;;;1.58;;
56877;SDS011;42765;44.764;19.676;2022-08-03T14:41:41;2.30;;;1.80;;
56877;SDS011;42765;44.764;19.676;2022-08-03T14:44:06;4.07;;;2.03;;
56877;SDS011;42765;44.764;19.676;2022-08-03T14:46:33;1.70;;;1.60;;
56877;SDS011;42765;44.764;19.676;2022-08-03T14:48:59;3.20;;;1.48;;
56877;SDS011;42765;44.764;19.676;2022-08-03T14:51:25;4.13;;;1.65;;
56877;SDS011;42765;44.764;19.676;2022-08-03T14:53:51;2.40;;;1.55;;
56877;SDS011;42765;44.764;19.676;2022-08-03T14:56:19;4.95;;;1.90;;
56877;SDS011;42765;44.764;19.676;2022-08-03T14:58:45;5.47;;;1.70;;
56877;SDS011;42765;44.764;19.676;2022-08-03T15:01:11;3.55;;;1.55;;
56877;SDS011;42765;44.764;19.676;2022-08-03T15:03:37;1.50;;;1.50;;
56877;SDS011;42765;44.764;19.676;2022-08-03T15:06:03;6.70;;;2.03;;
56877;SDS011;42765;44.764;19.676;2022-08-03T15:08:29;3.00;;;1.60;;
56877;SDS011;42765;44.764;19.676;2022-08-03T15:10:55;1.73;;;1.63;;
56877;SDS011;42765;44.764;19.676;2022-08-03T15:13:21;2.05;;;1.30;;
56877;SDS011;42765;44.764;19.676;2022-08-03T15:15:47;1.92;;;1.75;;
56877;SDS011;42765;44.764;19.676;2022-08-03T15:18:14;4.47;;;1.70;;
56877;SDS011;42765;44.764;19.676;2022-08-03T15:20:40;10.45;;;1.67;;
56877;SDS011;42765;44.764;19.676;2022-08-03T15:23:05;1.98;;;1.45;;
56877;SDS011;42765;44.764;19.676;2022-08-03T15:25:31;2.53;;;1.40;;
56877;SDS011;42765;44.764;19.676;2022-08-03T15:27:58;1.48;;;1.30;;
56877;SDS011;42765;44.764;19.676;2022-08-03T15:30:23;3.97;;;1.65;;